sensor_id;sensor_type;location;lat;lon;timestamp;P1;durP1;ratioP1;P2;durP2;ratioP2
33421;SDS011;19763;55.798;37.782;2023-04-03T00:02:15;16.10;;;10.57;;
33421;SDS011;19763;55.798;37.782;2023-04-03T00:04:40;14.43;;;10.40;;
33421;SDS011;19763;55.798;37.782;2023-04-03T00:07:06;18.25;;;10.93;;
33421;SDS011;19763;55.798;37.782;2023-04-03T00:09:32;13.20;;;9.82;;
33421;SDS011;19763;55.798;37.782;2023-04-03T00:11:57;15.85;;;11.30;;
33421;SDS011;19763;55.798;37.782;2023-04-03T00:14:23;13.57;;;9.38;;
33421;SDS011;19763;55.798;37.782;2023-04-03T00:16:49;15.68;;;9.63;;
33421;SDS011;19763;55.798;37.782;2023-04-03T00:19:14;13.60;;;10.27;;
33421;SDS011;19763;55.798;37.782;2023-04-03T00:21:40;14.13;;;9.35;;
33421;SDS011;19763;55.798;37.782;2023-04-03T00:24:06;14.38;;;10.05;;
33421;SDS011;19763;55.798;37.782;2023-04-03T00:26:32;16.48;;;10.20;;
33421;SDS011;19763;55.798;37.782;2023-04-03T00:28:57;15.30;;;10.32;;
33421;SDS011;19763;55.798;37.782;2023-04-03T00:31:23;15.50;;;12.32;;
33421;SDS011;19763;55.798;37.782;2023-04-03T00:33:49;15.07;;;9.60;;
33421;SDS011;19763;55.798;37.782;2023-04-03T00:36:14;13.95;;;10.05;;
33421;SDS011;19763;55.798;37.782;2023-04-03T00:38:40;13.23;;;9.90;;
33421;SDS011;19763;55.798;37.782;2023-04-03T00:41:06;14.18;;;9.70;;
33421;SDS011;19763;55.798;37.782;2023-04-03T00:43:32;11.27;;;9.63;;
33421;SDS011;19763;55.798;37.782;2023-04-03T00:45:58;14.90;;;10.20;;
33421;SDS011;19763;55.798;37.782;2023-04-03T00:48:29;15.50;;;11.05;;
33421;SDS011;19763;55.798;37.782;2023-04-03T00:51:01;15.27;;;9.52;;
33421;SDS011;19763;55.798;37.782;2023-04-03T00:53:30;16.77;;;9.70;;
33421;SDS011;19763;55.798;37.782;2023-04-03T00:56:00;16.83;;;10.85;;
33421;SDS011;19763;55.798;37.782;2023-04-03T00:58:33;13.70;;;9.65;;
33421;SDS011;19763;55.798;37.782;2023-04-03T01:01:07;18.08;;;11.15;;
33421;SDS011;19763;55.798;37.782;2023-04-03T01:03:37;12.93;;;9.60;;
33421;SDS011;19763;55.798;37.782;2023-04-03T01:06:03;15.55;;;10.52;;
33421;SDS011;19763;55.798;37.782;2023-04-03T01:08:29;14.50;;;10.05;;
33421;SDS011;19763;55.798;37.782;2023-04-03T01:10:55;15.27;;;10.98;;
33421;SDS011;19763;55.798;37.782;2023-04-03T01:13:25;17.40;;;10.73;;
33421;SDS011;19763;55.798;37.782;2023-04-03T01:15:56;20.15;;;10.73;;
33421;SDS011;19763;55.798;37.782;2023-04-03T01:18:25;13.52;;;10.35;;
33421;SDS011;19763;55.798;37.782;2023-04-03T01:25:50;19.35;;;12.23;;
33421;SDS011;19763;55.798;37.782;2023-04-03T01:36:04;15.68;;;11.40;;
33421;SDS011;19763;55.798;37.782;2023-04-03T01:38:30;17.48;;;11.77;;
33421;SDS011;19763;55.798;37.782;2023-04-03T01:40:55;17.65;;;11.40;;
33421;SDS011;19763;55.798;37.782;2023-04-03T01:43:21;16.83;;;11.50;;
33421;SDS011;19763;55.798;37.782;2023-04-03T01:45:47;17.27;;;11.30;;
33421;SDS011;19763;55.798;37.782;2023-04-03T01:48:14;20.73;;;12.48;;
33421;SDS011;19763;55.798;37.782;2023-04-03T01:50:40;14.80;;;12.10;;
33421;SDS011;19763;55.798;37.782;2023-04-03T01:53:06;23.85;;;13.85;;
33421;SDS011;19763;55.798;37.782;2023-04-03T01:55:32;22.30;;;14.00;;
33421;SDS011;19763;55.798;37.782;2023-04-03T01:57:57;18.50;;;12.75;;
33421;SDS011;19763;55.798;37.782;2023-04-03T02:00:23;20.30;;;13.70;;
33421;SDS011;19763;55.798;37.782;2023-04-03T02:02:49;18.75;;;13.63;;
33421;SDS011;19763;55.798;37.782;2023-04-03T02:05:15;18.50;;;12.80;;
33421;SDS011;19763;55.798;37.782;2023-04-03T02:07:40;17.30;;;13.48;;
33421;SDS011;19763;55.798;37.782;2023-04-03T02:10:06;20.80;;;14.55;;
33421;SDS011;19763;55.798;37.782;2023-04-03T02:12:32;18.67;;;13.32;;
33421;SDS011;19763;55.798;37.782;2023-04-03T02:14:57;23.92;;;14.57;;
33421;SDS011;19763;55.798;37.782;2023-04-03T02:17:23;21.48;;;13.55;;
33421;SDS011;19763;55.798;37.782;2023-04-03T02:19:48;19.73;;;13.45;;
33421;SDS011;19763;55.798;37.782;2023-04-03T02:22:14;18.00;;;12.52;;
33421;SDS011;19763;55.798;37.782;2023-04-03T02:24:40;24.02;;;14.07;;
33421;SDS011;19763;55.798;37.782;2023-04-03T02:27:06;19.40;;;13.90;;
33421;SDS011;19763;55.798;37.782;2023-04-03T02:29:32;20.15;;;14.48;;
33421;SDS011;19763;55.798;37.782;2023-04-03T02:31:57;21.45;;;15.32;;
33421;SDS011;19763;55.798;37.782;2023-04-03T02:34:23;18.25;;;13.68;;
33421;SDS011;19763;55.798;37.782;2023-04-03T02:36:49;22.70;;;16.33;;
33421;SDS011;19763;55.798;37.782;2023-04-03T02:39:15;18.98;;;15.30;;
33421;SDS011;19763;55.798;37.782;2023-04-03T02:41:41;26.15;;;15.73;;
33421;SDS011;19763;55.798;37.782;2023-04-03T02:44:07;20.83;;;16.05;;
33421;SDS011;19763;55.798;37.782;2023-04-03T02:46:34;23.35;;;15.80;;
33421;SDS011;19763;55.798;37.782;2023-04-03T02:49:00;23.45;;;17.92;;
33421;SDS011;19763;55.798;37.782;2023-04-03T02:51:26;23.52;;;18.60;;
33421;SDS011;19763;55.798;37.782;2023-04-03T02:53:51;25.33;;;19.20;;
33421;SDS011;19763;55.798;37.782;2023-04-03T02:56:17;23.60;;;17.23;;
33421;SDS011;19763;55.798;37.782;2023-04-03T02:58:44;25.65;;;18.77;;
33421;SDS011;19763;55.798;37.782;2023-04-03T03:01:10;22.83;;;18.00;;
33421;SDS011;19763;55.798;37.782;2023-04-03T03:03:36;24.27;;;18.33;;
33421;SDS011;19763;55.798;37.782;2023-04-03T03:06:09;30.73;;;20.42;;
33421;SDS011;19763;55.798;37.782;2023-04-03T03:08:36;29.00;;;19.33;;
33421;SDS011;19763;55.798;37.782;2023-04-03T03:11:02;28.17;;;20.08;;
33421;SDS011;19763;55.798;37.782;2023-04-03T03:13:29;28.10;;;18.17;;
33421;SDS011;19763;55.798;37.782;2023-04-03T03:15:55;26.40;;;19.40;;
33421;SDS011;19763;55.798;37.782;2023-04-03T03:18:21;28.05;;;18.42;;
33421;SDS011;19763;55.798;37.782;2023-04-03T03:20:50;29.08;;;18.50;;
33421;SDS011;19763;55.798;37.782;2023-04-03T03:23:27;32.40;;;19.77;;
33421;SDS011;19763;55.798;37.782;2023-04-03T03:25:58;24.00;;;18.83;;
33421;SDS011;19763;55.798;37.782;2023-04-03T03:28:25;24.90;;;18.70;;
33421;SDS011;19763;55.798;37.782;2023-04-03T03:30:51;24.75;;;18.27;;
33421;SDS011;19763;55.798;37.782;2023-04-03T03:33:16;24.67;;;17.73;;
33421;SDS011;19763;55.798;37.782;2023-04-03T03:35:44;29.92;;;18.70;;
33421;SDS011;19763;55.798;37.782;2023-04-03T03:38:09;27.52;;;18.00;;
33421;SDS011;19763;55.798;37.782;2023-04-03T03:40:35;26.65;;;19.42;;
33421;SDS011;19763;55.798;37.782;2023-04-03T03:43:01;29.67;;;19.13;;
33421;SDS011;19763;55.798;37.782;2023-04-03T03:45:27;27.10;;;19.08;;
33421;SDS011;19763;55.798;37.782;2023-04-03T03:47:52;25.67;;;17.92;;
33421;SDS011;19763;55.798;37.782;2023-04-03T03:50:18;26.13;;;16.67;;
33421;SDS011;19763;55.798;37.782;2023-04-03T03:52:44;25.13;;;17.23;;
33421;SDS011;19763;55.798;37.782;2023-04-03T03:55:09;25.17;;;18.20;;
33421;SDS011;19763;55.798;37.782;2023-04-03T03:57:35;23.77;;;17.98;;
33421;SDS011;19763;55.798;37.782;2023-04-03T04:00:01;26.15;;;18.27;;
33421;SDS011;19763;55.798;37.782;2023-04-03T04:02:29;23.98;;;16.50;;
33421;SDS011;19763;55.798;37.782;2023-04-03T04:04:55;26.10;;;16.13;;
33421;SDS011;19763;55.798;37.782;2023-04-03T04:07:21;21.08;;;16.38;;
33421;SDS011;19763;55.798;37.782;2023-04-03T04:09:47;21.10;;;13.52;;
33421;SDS011;19763;55.798;37.782;2023-04-03T04:12:12;19.80;;;14.38;;
33421;SDS011;19763;55.798;37.782;2023-04-03T04:14:38;23.95;;;13.02;;
33421;SDS011;19763;55.798;37.782;2023-04-03T04:17:03;24.65;;;13.60;;
33421;SDS011;19763;55.798;37.782;2023-04-03T04:19:29;16.90;;;13.75;;
33421;SDS011;19763;55.798;37.782;2023-04-03T04:21:54;24.30;;;13.88;;
33421;SDS011;19763;55.798;37.782;2023-04-03T04:24:20;23.95;;;13.90;;
33421;SDS011;19763;55.798;37.782;2023-04-03T04:26:47;19.30;;;12.80;;
33421;SDS011;19763;55.798;37.782;2023-04-03T04:29:13;20.23;;;12.15;;
33421;SDS011;19763;55.798;37.782;2023-04-03T04:31:39;19.30;;;12.90;;
33421;SDS011;19763;55.798;37.782;2023-04-03T04:34:05;17.55;;;11.70;;
33421;SDS011;19763;55.798;37.782;2023-04-03T04:36:31;20.48;;;12.65;;
33421;SDS011;19763;55.798;37.782;2023-04-03T04:38:56;25.80;;;12.23;;
33421;SDS011;19763;55.798;37.782;2023-04-03T04:41:23;21.02;;;11.73;;
33421;SDS011;19763;55.798;37.782;2023-04-03T04:43:50;17.83;;;11.40;;
33421;SDS011;19763;55.798;37.782;2023-04-03T04:46:17;18.42;;;12.30;;
33421;SDS011;19763;55.798;37.782;2023-04-03T04:48:43;24.73;;;12.02;;
33421;SDS011;19763;55.798;37.782;2023-04-03T04:51:09;18.42;;;11.85;;
33421;SDS011;19763;55.798;37.782;2023-04-03T04:53:35;20.02;;;12.73;;
33421;SDS011;19763;55.798;37.782;2023-04-03T04:56:01;22.70;;;12.60;;
33421;SDS011;19763;55.798;37.782;2023-04-03T04:58:27;17.98;;;12.63;;
33421;SDS011;19763;55.798;37.782;2023-04-03T05:01:02;19.75;;;12.52;;
33421;SDS011;19763;55.798;37.782;2023-04-03T05:03:29;25.00;;;13.05;;
33421;SDS011;19763;55.798;37.782;2023-04-03T05:05:55;15.15;;;12.23;;
33421;SDS011;19763;55.798;37.782;2023-04-03T05:08:21;22.05;;;12.95;;
33421;SDS011;19763;55.798;37.782;2023-04-03T05:10:47;17.77;;;11.77;;
33421;SDS011;19763;55.798;37.782;2023-04-03T05:13:13;19.17;;;12.30;;
33421;SDS011;19763;55.798;37.782;2023-04-03T05:15:39;20.45;;;12.10;;
33421;SDS011;19763;55.798;37.782;2023-04-03T05:18:04;18.85;;;12.88;;
33421;SDS011;19763;55.798;37.782;2023-04-03T05:20:30;22.92;;;13.02;;
33421;SDS011;19763;55.798;37.782;2023-04-03T05:22:56;18.58;;;13.02;;
33421;SDS011;19763;55.798;37.782;2023-04-03T05:25:22;16.60;;;12.40;;
33421;SDS011;19763;55.798;37.782;2023-04-03T05:27:48;17.40;;;12.10;;
33421;SDS011;19763;55.798;37.782;2023-04-03T05:30:13;22.80;;;14.43;;
33421;SDS011;19763;55.798;37.782;2023-04-03T05:32:39;18.98;;;12.48;;
33421;SDS011;19763;55.798;37.782;2023-04-03T05:35:06;16.70;;;12.60;;
33421;SDS011;19763;55.798;37.782;2023-04-03T05:37:32;21.67;;;13.25;;
33421;SDS011;19763;55.798;37.782;2023-04-03T05:39:58;20.48;;;12.57;;
33421;SDS011;19763;55.798;37.782;2023-04-03T05:42:24;30.15;;;13.48;;
33421;SDS011;19763;55.798;37.782;2023-04-03T05:44:49;18.98;;;13.15;;
33421;SDS011;19763;55.798;37.782;2023-04-03T05:47:15;22.38;;;13.25;;
33421;SDS011;19763;55.798;37.782;2023-04-03T05:49:41;22.80;;;13.75;;
33421;SDS011;19763;55.798;37.782;2023-04-03T05:52:41;22.15;;;13.63;;
33421;SDS011;19763;55.798;37.782;2023-04-03T05:55:01;18.15;;;13.13;;
33421;SDS011;19763;55.798;37.782;2023-04-03T05:57:28;25.42;;;13.88;;
33421;SDS011;19763;55.798;37.782;2023-04-03T05:59:54;24.63;;;14.00;;
33421;SDS011;19763;55.798;37.782;2023-04-03T06:02:20;24.88;;;13.88;;
33421;SDS011;19763;55.798;37.782;2023-04-03T06:04:47;22.42;;;14.30;;
33421;SDS011;19763;55.798;37.782;2023-04-03T06:07:14;23.48;;;13.82;;
33421;SDS011;19763;55.798;37.782;2023-04-03T06:09:41;28.38;;;14.90;;
33421;SDS011;19763;55.798;37.782;2023-04-03T06:12:07;22.65;;;13.85;;
33421;SDS011;19763;55.798;37.782;2023-04-03T06:14:33;20.08;;;14.02;;
33421;SDS011;19763;55.798;37.782;2023-04-03T06:16:59;23.92;;;14.43;;
33421;SDS011;19763;55.798;37.782;2023-04-03T06:19:25;21.48;;;13.57;;
33421;SDS011;19763;55.798;37.782;2023-04-03T06:21:51;25.35;;;13.65;;
33421;SDS011;19763;55.798;37.782;2023-04-03T06:24:17;20.88;;;14.25;;
33421;SDS011;19763;55.798;37.782;2023-04-03T06:26:43;25.73;;;15.23;;
33421;SDS011;19763;55.798;37.782;2023-04-03T06:29:09;30.67;;;14.77;;
33421;SDS011;19763;55.798;37.782;2023-04-03T06:31:35;26.35;;;14.75;;
33421;SDS011;19763;55.798;37.782;2023-04-03T06:34:04;21.45;;;13.95;;
33421;SDS011;19763;55.798;37.782;2023-04-03T06:36:32;23.55;;;13.20;;
33421;SDS011;19763;55.798;37.782;2023-04-03T06:38:58;19.60;;;13.98;;
33421;SDS011;19763;55.798;37.782;2023-04-03T06:41:23;22.45;;;12.73;;
33421;SDS011;19763;55.798;37.782;2023-04-03T06:43:50;20.92;;;14.68;;
33421;SDS011;19763;55.798;37.782;2023-04-03T06:46:16;21.10;;;12.80;;
33421;SDS011;19763;55.798;37.782;2023-04-03T06:48:44;25.70;;;12.55;;
33421;SDS011;19763;55.798;37.782;2023-04-03T06:51:17;25.08;;;13.95;;
33421;SDS011;19763;55.798;37.782;2023-04-03T06:53:48;18.40;;;13.45;;
33421;SDS011;19763;55.798;37.782;2023-04-03T06:56:14;22.25;;;13.52;;
33421;SDS011;19763;55.798;37.782;2023-04-03T06:58:41;27.40;;;13.55;;
33421;SDS011;19763;55.798;37.782;2023-04-03T07:01:08;18.98;;;12.98;;
33421;SDS011;19763;55.798;37.782;2023-04-03T07:03:36;18.58;;;13.30;;
33421;SDS011;19763;55.798;37.782;2023-04-03T07:06:02;22.20;;;14.63;;
33421;SDS011;19763;55.798;37.782;2023-04-03T07:08:29;26.67;;;14.00;;
33421;SDS011;19763;55.798;37.782;2023-04-03T07:10:54;20.02;;;13.18;;
33421;SDS011;19763;55.798;37.782;2023-04-03T07:13:20;18.35;;;13.48;;
33421;SDS011;19763;55.798;37.782;2023-04-03T07:15:46;19.95;;;13.85;;
33421;SDS011;19763;55.798;37.782;2023-04-03T07:18:11;23.13;;;13.68;;
33421;SDS011;19763;55.798;37.782;2023-04-03T07:20:38;23.08;;;13.60;;
33421;SDS011;19763;55.798;37.782;2023-04-03T07:23:03;21.52;;;13.63;;
33421;SDS011;19763;55.798;37.782;2023-04-03T07:25:29;18.92;;;12.65;;
33421;SDS011;19763;55.798;37.782;2023-04-03T07:27:56;18.60;;;13.52;;
33421;SDS011;19763;55.798;37.782;2023-04-03T07:30:23;25.13;;;13.75;;
33421;SDS011;19763;55.798;37.782;2023-04-03T07:32:48;22.65;;;14.30;;
33421;SDS011;19763;55.798;37.782;2023-04-03T07:35:14;24.45;;;14.00;;
33421;SDS011;19763;55.798;37.782;2023-04-03T07:37:41;21.85;;;13.30;;
33421;SDS011;19763;55.798;37.782;2023-04-03T07:40:07;20.52;;;13.90;;
33421;SDS011;19763;55.798;37.782;2023-04-03T07:42:33;24.23;;;13.25;;
33421;SDS011;19763;55.798;37.782;2023-04-03T07:45:00;17.73;;;13.30;;
33421;SDS011;19763;55.798;37.782;2023-04-03T07:47:27;22.33;;;12.45;;
33421;SDS011;19763;55.798;37.782;2023-04-03T07:49:53;22.52;;;14.63;;
33421;SDS011;19763;55.798;37.782;2023-04-03T07:52:18;22.45;;;15.88;;
33421;SDS011;19763;55.798;37.782;2023-04-03T07:54:44;22.38;;;14.90;;
33421;SDS011;19763;55.798;37.782;2023-04-03T07:57:10;25.50;;;15.30;;
33421;SDS011;19763;55.798;37.782;2023-04-03T07:59:35;31.48;;;15.65;;
33421;SDS011;19763;55.798;37.782;2023-04-03T08:02:01;21.90;;;16.42;;
33421;SDS011;19763;55.798;37.782;2023-04-03T08:04:26;21.90;;;14.63;;
33421;SDS011;19763;55.798;37.782;2023-04-03T08:06:52;22.42;;;15.48;;
33421;SDS011;19763;55.798;37.782;2023-04-03T08:09:18;27.73;;;16.45;;
33421;SDS011;19763;55.798;37.782;2023-04-03T08:11:44;27.83;;;15.95;;
33421;SDS011;19763;55.798;37.782;2023-04-03T08:14:10;26.00;;;16.42;;
33421;SDS011;19763;55.798;37.782;2023-04-03T08:16:41;22.98;;;15.27;;
33421;SDS011;19763;55.798;37.782;2023-04-03T08:19:08;22.98;;;16.15;;
33421;SDS011;19763;55.798;37.782;2023-04-03T08:21:35;25.58;;;15.43;;
33421;SDS011;19763;55.798;37.782;2023-04-03T08:24:01;26.50;;;15.85;;
33421;SDS011;19763;55.798;37.782;2023-04-03T08:26:29;26.25;;;15.57;;
33421;SDS011;19763;55.798;37.782;2023-04-03T08:28:54;21.00;;;14.52;;
33421;SDS011;19763;55.798;37.782;2023-04-03T08:31:20;21.23;;;14.00;;
33421;SDS011;19763;55.798;37.782;2023-04-03T08:33:46;24.30;;;14.15;;
33421;SDS011;19763;55.798;37.782;2023-04-03T08:36:17;23.38;;;14.48;;
33421;SDS011;19763;55.798;37.782;2023-04-03T08:38:44;22.08;;;14.20;;
33421;SDS011;19763;55.798;37.782;2023-04-03T08:41:56;23.38;;;14.15;;
33421;SDS011;19763;55.798;37.782;2023-04-03T08:49:45;22.73;;;14.75;;
33421;SDS011;19763;55.798;37.782;2023-04-03T08:52:38;25.60;;;14.65;;
33421;SDS011;19763;55.798;37.782;2023-04-03T08:55:25;25.30;;;15.43;;
33421;SDS011;19763;55.798;37.782;2023-04-03T08:57:53;24.05;;;14.38;;
33421;SDS011;19763;55.798;37.782;2023-04-03T09:00:27;29.42;;;15.27;;
33421;SDS011;19763;55.798;37.782;2023-04-03T09:02:59;25.52;;;15.13;;
33421;SDS011;19763;55.798;37.782;2023-04-03T09:05:42;22.80;;;14.38;;
33421;SDS011;19763;55.798;37.782;2023-04-03T09:10:47;21.75;;;13.70;;
33421;SDS011;19763;55.798;37.782;2023-04-03T09:13:29;24.20;;;14.00;;
33421;SDS011;19763;55.798;37.782;2023-04-03T09:16:02;25.08;;;13.32;;
33421;SDS011;19763;55.798;37.782;2023-04-03T09:18:36;23.10;;;13.18;;
33421;SDS011;19763;55.798;37.782;2023-04-03T09:21:17;21.40;;;13.63;;
33421;SDS011;19763;55.798;37.782;2023-04-03T09:23:51;22.77;;;13.90;;
33421;SDS011;19763;55.798;37.782;2023-04-03T09:29:10;17.33;;;12.30;;
33421;SDS011;19763;55.798;37.782;2023-04-03T09:31:43;17.85;;;11.88;;
33421;SDS011;19763;55.798;37.782;2023-04-03T09:34:17;19.08;;;12.25;;
33421;SDS011;19763;55.798;37.782;2023-04-03T09:36:53;21.77;;;12.63;;
33421;SDS011;19763;55.798;37.782;2023-04-03T09:39:24;17.17;;;12.43;;
33421;SDS011;19763;55.798;37.782;2023-04-03T09:42:05;20.75;;;12.90;;
33421;SDS011;19763;55.798;37.782;2023-04-03T09:44:42;24.80;;;12.50;;
33421;SDS011;19763;55.798;37.782;2023-04-03T09:47:53;19.27;;;11.57;;
33421;SDS011;19763;55.798;37.782;2023-04-03T09:52:44;16.02;;;11.90;;
33421;SDS011;19763;55.798;37.782;2023-04-03T09:55:21;19.27;;;11.30;;
33421;SDS011;19763;55.798;37.782;2023-04-03T09:57:53;19.50;;;12.23;;
33421;SDS011;19763;55.798;37.782;2023-04-03T10:00:24;15.38;;;12.38;;
33421;SDS011;19763;55.798;37.782;2023-04-03T10:02:56;18.48;;;12.38;;
33421;SDS011;19763;55.798;37.782;2023-04-03T10:05:27;22.52;;;13.23;;
33421;SDS011;19763;55.798;37.782;2023-04-03T10:10:33;25.10;;;12.90;;
33421;SDS011;19763;55.798;37.782;2023-04-03T10:13:12;28.85;;;18.60;;
33421;SDS011;19763;55.798;37.782;2023-04-03T10:18:21;17.42;;;11.90;;
33421;SDS011;19763;55.798;37.782;2023-04-03T10:21:10;20.40;;;12.40;;
33421;SDS011;19763;55.798;37.782;2023-04-03T10:23:51;21.90;;;11.73;;
33421;SDS011;19763;55.798;37.782;2023-04-03T10:29:42;16.77;;;10.20;;
33421;SDS011;19763;55.798;37.782;2023-04-03T10:35:37;20.55;;;9.70;;
33421;SDS011;19763;55.798;37.782;2023-04-03T10:43:36;11.73;;;8.35;;
33421;SDS011;19763;55.798;37.782;2023-04-03T10:46:23;18.85;;;9.05;;
33421;SDS011;19763;55.798;37.782;2023-04-03T10:51:28;16.33;;;9.73;;
33421;SDS011;19763;55.798;37.782;2023-04-03T10:56:40;15.68;;;8.88;;
33421;SDS011;19763;55.798;37.782;2023-04-03T11:01:38;22.92;;;10.10;;
33421;SDS011;19763;55.798;37.782;2023-04-03T11:04:06;15.93;;;10.02;;
33421;SDS011;19763;55.798;37.782;2023-04-03T11:06:36;14.45;;;8.95;;
33421;SDS011;19763;55.798;37.782;2023-04-03T11:09:30;10.98;;;7.60;;
33421;SDS011;19763;55.798;37.782;2023-04-03T11:12:04;11.02;;;8.05;;
33421;SDS011;19763;55.798;37.782;2023-04-03T11:14:36;12.45;;;8.35;;
33421;SDS011;19763;55.798;37.782;2023-04-03T11:20:34;13.35;;;8.10;;
33421;SDS011;19763;55.798;37.782;2023-04-03T11:22:54;12.88;;;7.88;;
33421;SDS011;19763;55.798;37.782;2023-04-03T11:25:26;13.13;;;7.85;;
33421;SDS011;19763;55.798;37.782;2023-04-03T11:27:58;14.95;;;8.80;;
33421;SDS011;19763;55.798;37.782;2023-04-03T11:35:43;20.85;;;9.40;;
33421;SDS011;19763;55.798;37.782;2023-04-03T11:38:14;17.83;;;8.65;;
33421;SDS011;19763;55.798;37.782;2023-04-03T11:40:47;14.05;;;9.52;;
33421;SDS011;19763;55.798;37.782;2023-04-03T11:43:27;17.63;;;10.40;;
33421;SDS011;19763;55.798;37.782;2023-04-03T11:50:58;13.70;;;10.00;;
33421;SDS011;19763;55.798;37.782;2023-04-03T11:53:30;16.65;;;10.55;;
33421;SDS011;19763;55.798;37.782;2023-04-03T11:58:27;17.90;;;10.40;;
33421;SDS011;19763;55.798;37.782;2023-04-03T12:00:58;19.67;;;11.68;;
33421;SDS011;19763;55.798;37.782;2023-04-03T12:16:22;14.55;;;9.65;;
33421;SDS011;19763;55.798;37.782;2023-04-03T12:19:00;15.98;;;10.27;;
33421;SDS011;19763;55.798;37.782;2023-04-03T12:26:50;15.73;;;9.82;;
33421;SDS011;19763;55.798;37.782;2023-04-03T12:29:19;23.30;;;10.32;;
33421;SDS011;19763;55.798;37.782;2023-04-03T12:45:38;14.95;;;7.75;;
33421;SDS011;19763;55.798;37.782;2023-04-03T12:48:12;15.15;;;8.43;;
33421;SDS011;19763;55.798;37.782;2023-04-03T12:50:41;17.75;;;9.05;;
33421;SDS011;19763;55.798;37.782;2023-04-03T12:53:12;14.93;;;9.55;;
33421;SDS011;19763;55.798;37.782;2023-04-03T12:55:42;12.98;;;7.60;;
33421;SDS011;19763;55.798;37.782;2023-04-03T13:01:04;11.38;;;8.27;;
33421;SDS011;19763;55.798;37.782;2023-04-03T13:03:37;12.07;;;7.03;;
33421;SDS011;19763;55.798;37.782;2023-04-03T13:06:04;10.68;;;7.70;;
33421;SDS011;19763;55.798;37.782;2023-04-03T13:08:30;17.73;;;9.05;;
33421;SDS011;19763;55.798;37.782;2023-04-03T13:11:07;14.35;;;8.45;;
33421;SDS011;19763;55.798;37.782;2023-04-03T13:13:36;13.25;;;7.65;;
33421;SDS011;19763;55.798;37.782;2023-04-03T13:16:10;11.23;;;7.43;;
33421;SDS011;19763;55.798;37.782;2023-04-03T13:18:38;12.73;;;7.30;;
33421;SDS011;19763;55.798;37.782;2023-04-03T13:21:05;14.57;;;7.63;;
33421;SDS011;19763;55.798;37.782;2023-04-03T13:23:38;13.10;;;7.88;;
33421;SDS011;19763;55.798;37.782;2023-04-03T13:26:07;14.38;;;8.65;;
33421;SDS011;19763;55.798;37.782;2023-04-03T13:28:34;13.48;;;8.27;;
33421;SDS011;19763;55.798;37.782;2023-04-03T13:31:02;16.85;;;8.02;;
33421;SDS011;19763;55.798;37.782;2023-04-03T13:33:32;18.60;;;8.55;;
33421;SDS011;19763;55.798;37.782;2023-04-03T13:36:04;14.53;;;8.17;;
33421;SDS011;19763;55.798;37.782;2023-04-03T13:38:33;13.63;;;7.88;;
33421;SDS011;19763;55.798;37.782;2023-04-03T13:41:00;11.63;;;8.25;;
33421;SDS011;19763;55.798;37.782;2023-04-03T13:43:30;12.27;;;7.82;;
33421;SDS011;19763;55.798;37.782;2023-04-03T13:46:05;9.98;;;7.80;;
33421;SDS011;19763;55.798;37.782;2023-04-03T13:53:43;14.02;;;8.68;;
33421;SDS011;19763;55.798;37.782;2023-04-03T13:59:19;15.15;;;8.90;;
33421;SDS011;19763;55.798;37.782;2023-04-03T14:02:12;13.77;;;8.75;;
33421;SDS011;19763;55.798;37.782;2023-04-03T14:04:50;13.70;;;8.18;;
33421;SDS011;19763;55.798;37.782;2023-04-03T14:07:21;13.68;;;7.93;;
33421;SDS011;19763;55.798;37.782;2023-04-03T14:09:47;12.98;;;8.60;;
33421;SDS011;19763;55.798;37.782;2023-04-03T14:12:18;11.80;;;7.72;;
33421;SDS011;19763;55.798;37.782;2023-04-03T14:14:56;14.25;;;8.07;;
33421;SDS011;19763;55.798;37.782;2023-04-03T14:17:25;16.63;;;8.30;;
33421;SDS011;19763;55.798;37.782;2023-04-03T14:19:53;11.70;;;8.52;;
33421;SDS011;19763;55.798;37.782;2023-04-03T14:22:24;11.88;;;7.90;;
33421;SDS011;19763;55.798;37.782;2023-04-03T14:24:51;11.00;;;8.68;;
33421;SDS011;19763;55.798;37.782;2023-04-03T14:27:33;14.40;;;9.63;;
33421;SDS011;19763;55.798;37.782;2023-04-03T14:30:01;12.20;;;9.57;;
33421;SDS011;19763;55.798;37.782;2023-04-03T14:32:28;15.00;;;9.05;;
33421;SDS011;19763;55.798;37.782;2023-04-03T14:34:54;14.88;;;9.27;;
33421;SDS011;19763;55.798;37.782;2023-04-03T14:37:23;11.75;;;8.77;;
33421;SDS011;19763;55.798;37.782;2023-04-03T14:39:52;12.52;;;8.60;;
33421;SDS011;19763;55.798;37.782;2023-04-03T14:42:20;12.75;;;9.30;;
33421;SDS011;19763;55.798;37.782;2023-04-03T14:47:18;12.23;;;8.98;;
33421;SDS011;19763;55.798;37.782;2023-04-03T14:49:46;10.52;;;8.45;;
33421;SDS011;19763;55.798;37.782;2023-04-03T14:54:45;14.88;;;9.63;;
33421;SDS011;19763;55.798;37.782;2023-04-03T14:57:11;12.52;;;8.82;;
33421;SDS011;19763;55.798;37.782;2023-04-03T14:59:40;14.88;;;10.70;;
33421;SDS011;19763;55.798;37.782;2023-04-03T15:02:48;16.85;;;10.55;;
33421;SDS011;19763;55.798;37.782;2023-04-03T15:04:58;13.27;;;10.97;;
33421;SDS011;19763;55.798;37.782;2023-04-03T15:07:25;14.38;;;10.35;;
33421;SDS011;19763;55.798;37.782;2023-04-03T15:09:53;13.70;;;9.90;;
33421;SDS011;19763;55.798;37.782;2023-04-03T15:12:22;17.15;;;10.30;;
33421;SDS011;19763;55.798;37.782;2023-04-03T15:14:48;14.30;;;8.90;;
33421;SDS011;19763;55.798;37.782;2023-04-03T15:17:15;16.23;;;9.23;;
33421;SDS011;19763;55.798;37.782;2023-04-03T15:19:46;13.55;;;9.05;;
33421;SDS011;19763;55.798;37.782;2023-04-03T15:22:13;16.23;;;9.15;;
33421;SDS011;19763;55.798;37.782;2023-04-03T15:24:43;13.55;;;8.90;;
33421;SDS011;19763;55.798;37.782;2023-04-03T15:27:09;11.48;;;8.20;;
33421;SDS011;19763;55.798;37.782;2023-04-03T15:29:36;12.05;;;8.18;;
33421;SDS011;19763;55.798;37.782;2023-04-03T15:32:03;10.23;;;8.02;;
33421;SDS011;19763;55.798;37.782;2023-04-03T15:34:29;12.15;;;8.82;;
33421;SDS011;19763;55.798;37.782;2023-04-03T15:36:54;18.77;;;11.93;;
33421;SDS011;19763;55.798;37.782;2023-04-03T15:39:20;17.08;;;9.25;;
33421;SDS011;19763;55.798;37.782;2023-04-03T15:41:46;11.80;;;8.38;;
33421;SDS011;19763;55.798;37.782;2023-04-03T15:44:11;13.13;;;8.05;;
33421;SDS011;19763;55.798;37.782;2023-04-03T15:46:38;13.52;;;8.48;;
33421;SDS011;19763;55.798;37.782;2023-04-03T15:49:04;14.07;;;8.85;;
33421;SDS011;19763;55.798;37.782;2023-04-03T15:51:30;15.77;;;9.27;;
33421;SDS011;19763;55.798;37.782;2023-04-03T15:53:56;16.15;;;9.63;;
33421;SDS011;19763;55.798;37.782;2023-04-03T15:56:22;15.73;;;8.90;;
33421;SDS011;19763;55.798;37.782;2023-04-03T15:58:47;16.65;;;9.10;;
33421;SDS011;19763;55.798;37.782;2023-04-03T16:01:13;23.55;;;10.82;;
33421;SDS011;19763;55.798;37.782;2023-04-03T16:03:40;22.80;;;10.82;;
33421;SDS011;19763;55.798;37.782;2023-04-03T16:06:14;20.08;;;11.15;;
33421;SDS011;19763;55.798;37.782;2023-04-03T16:08:41;16.08;;;9.00;;
33421;SDS011;19763;55.798;37.782;2023-04-03T16:11:07;14.70;;;9.85;;
33421;SDS011;19763;55.798;37.782;2023-04-03T16:13:33;16.20;;;9.90;;
33421;SDS011;19763;55.798;37.782;2023-04-03T16:15:59;15.48;;;8.80;;
33421;SDS011;19763;55.798;37.782;2023-04-03T16:18:27;17.80;;;10.52;;